createdAt,value
2022-07-28T00:00:14.859Z,100414.38
2022-07-28T00:02:42.559Z,100411.09
2022-07-28T00:05:10.026Z,100407.44
2022-07-28T00:07:37.509Z,100406.25
2022-07-28T00:10:05.337Z,100412.50
2022-07-28T00:12:32.645Z,100406.00
2022-07-28T00:14:59.854Z,100408.03
2022-07-28T00:17:27.715Z,100412.66
2022-07-28T00:19:55.386Z,100408.44
2022-07-28T00:22:22.693Z,100400.56
2022-07-28T00:24:49.932Z,100400.94
2022-07-28T00:27:19.334Z,100399.31
2022-07-28T00:29:50.275Z,100399.84
2022-07-28T00:32:18.630Z,100395.81
2022-07-28T00:34:46.098Z,100400.00
2022-07-28T00:37:14.843Z,100399.22
2022-07-28T00:39:43.012Z,100398.53
2022-07-28T00:42:10.264Z,100395.47
2022-07-28T00:44:42.209Z,100400.78
2022-07-28T00:47:09.737Z,100403.31
2022-07-28T00:49:36.969Z,100400.56
2022-07-28T00:52:04.880Z,100404.22
2022-07-28T00:54:32.698Z,100405.31
2022-07-28T00:57:00.066Z,100397.03
2022-07-28T00:59:27.389Z,100388.75
2022-07-28T01:01:55.610Z,100396.66
2022-07-28T01:04:24.308Z,100392.66
2022-07-28T01:06:51.600Z,100400.78
2022-07-28T01:09:29.993Z,100397.50
2022-07-28T01:12:16.171Z,100400.09
2022-07-28T01:14:52.501Z,100398.22
2022-07-28T01:17:25.796Z,100401.19
2022-07-28T01:19:53.347Z,100399.97
2022-07-28T01:22:24.560Z,100398.25
2022-07-28T01:25:10.476Z,100406.06
2022-07-28T01:27:56.307Z,100403.50
2022-07-28T01:30:27.682Z,100399.06
2022-07-28T01:33:00.201Z,100404.84
2022-07-28T01:35:30.254Z,100394.66
2022-07-28T01:37:59.818Z,100398.78
2022-07-28T01:40:30.182Z,100401.31
2022-07-28T01:42:59.345Z,100400.19
2022-07-28T01:45:27.491Z,100401.91
2022-07-28T01:47:56.022Z,100404.00
2022-07-28T01:50:25.000Z,100397.94
2022-07-28T01:52:52.925Z,100406.91
2022-07-28T01:55:20.909Z,100407.13
2022-07-28T01:57:48.859Z,100411.16
2022-07-28T02:00:17.816Z,100410.91
2022-07-28T02:02:46.962Z,100412.81
2022-07-28T02:05:16.871Z,100414.91
2022-07-28T02:07:47.701Z,100421.28
2022-07-28T02:10:15.993Z,100419.03
2022-07-28T02:12:44.987Z,100411.75
2022-07-28T02:15:15.789Z,100414.69
2022-07-28T02:17:45.063Z,100423.44
2022-07-28T02:20:13.464Z,100422.50
2022-07-28T02:22:41.273Z,100418.38
2022-07-28T02:25:08.811Z,100422.41
2022-07-28T02:27:44.782Z,100420.69
2022-07-28T02:30:16.642Z,100417.81
2022-07-28T02:33:03.641Z,100419.28
2022-07-28T02:35:38.167Z,100424.72
2022-07-28T02:38:07.477Z,100414.94
2022-07-28T02:40:36.419Z,100416.22
2022-07-28T02:43:06.920Z,100410.09
2022-07-28T02:45:35.802Z,100410.94
2022-07-28T02:48:05.553Z,100412.06
2022-07-28T02:50:32.788Z,100401.88
2022-07-28T02:53:02.068Z,100409.22
2022-07-28T02:55:47.436Z,100409.94
2022-07-28T02:58:16.189Z,100411.63
2022-07-28T03:00:44.338Z,100406.75
2022-07-28T03:03:12.065Z,100412.81
2022-07-28T03:05:40.288Z,100413.06
2022-07-28T03:08:07.667Z,100411.94
2022-07-28T03:10:35.000Z,100418.81
2022-07-28T03:13:05.273Z,100405.63
2022-07-28T03:15:33.264Z,100417.81
2022-07-28T03:18:01.114Z,100425.00
2022-07-28T03:20:28.452Z,100427.00
2022-07-28T03:22:55.820Z,100422.41
2022-07-28T03:25:39.429Z,100425.28
2022-07-28T03:28:08.226Z,100424.56
2022-07-28T03:30:38.698Z,100422.25
2022-07-28T03:33:06.489Z,100423.41
2022-07-28T03:35:35.814Z,100414.22
2022-07-28T03:38:08.667Z,100424.44
2022-07-28T03:40:37.664Z,100422.56
2022-07-28T03:43:08.221Z,100421.25
2022-07-28T03:45:35.765Z,100428.16
2022-07-28T03:48:03.293Z,100421.13
2022-07-28T03:50:31.575Z,100433.88
2022-07-28T03:53:00.154Z,100430.28
2022-07-28T03:55:27.387Z,100433.00
2022-07-28T03:57:54.609Z,100425.44
2022-07-28T04:00:22.072Z,100431.16
2022-07-28T04:02:49.379Z,100428.81
2022-07-28T04:05:17.503Z,100427.50
2022-07-28T04:07:46.178Z,100431.53
2022-07-28T04:10:14.905Z,100437.31
2022-07-28T04:12:46.422Z,100443.00
2022-07-28T04:15:14.643Z,100437.56
2022-07-28T04:17:42.688Z,100438.69
2022-07-28T04:20:10.424Z,100441.94
2022-07-28T04:22:37.655Z,100439.50
2022-07-28T04:25:05.386Z,100445.72
2022-07-28T04:27:32.493Z,100451.50
2022-07-28T04:29:59.701Z,100449.63
2022-07-28T04:32:26.971Z,100447.63
2022-07-28T04:34:54.187Z,100453.22
2022-07-28T04:37:21.432Z,100454.34
2022-07-28T04:39:50.743Z,100452.75
2022-07-28T04:42:21.531Z,100461.09
2022-07-28T04:44:49.309Z,100463.56
2022-07-28T04:47:16.689Z,100472.03
2022-07-28T04:49:44.157Z,100462.84
2022-07-28T04:52:12.720Z,100468.31
2022-07-28T04:54:39.938Z,100469.63
2022-07-28T04:57:10.295Z,100462.34
2022-07-28T04:59:40.673Z,100469.34
2022-07-28T05:02:07.937Z,100473.41
2022-07-28T05:04:35.549Z,100468.53
2022-07-28T05:07:07.879Z,100465.88
2022-07-28T05:09:40.041Z,100465.72
2022-07-28T05:12:07.394Z,100463.16
2022-07-28T05:14:34.613Z,100467.75
2022-07-28T05:17:02.167Z,100468.03
2022-07-28T05:19:29.702Z,100475.22
2022-07-28T05:21:56.919Z,100469.91
2022-07-28T05:24:24.204Z,100458.41
2022-07-28T05:26:51.417Z,100463.47
2022-07-28T05:29:18.645Z,100462.28
2022-07-28T05:31:45.884Z,100467.19
2022-07-28T05:34:13.384Z,100459.00
2022-07-28T05:36:40.710Z,100466.47
2022-07-28T05:39:07.980Z,100469.78
2022-07-28T05:41:35.181Z,100473.50
2022-07-28T05:44:02.470Z,100470.19
2022-07-28T05:46:29.868Z,100475.75
2022-07-28T05:48:57.206Z,100465.81
2022-07-28T05:51:24.494Z,100468.81
2022-07-28T05:53:51.894Z,100471.81
2022-07-28T05:56:19.222Z,100472.28
2022-07-28T05:58:46.478Z,100479.72
2022-07-28T06:01:13.762Z,100475.88
2022-07-28T06:03:42.572Z,100475.00
2022-07-28T06:06:14.586Z,100484.56
2022-07-28T06:08:45.043Z,100489.47
2022-07-28T06:11:21.624Z,100487.84
2022-07-28T06:13:50.487Z,100481.94
2022-07-28T06:16:18.749Z,100487.84
2022-07-28T06:18:46.204Z,100489.84
2022-07-28T06:21:13.599Z,100485.91
2022-07-28T06:23:41.576Z,100486.88
2022-07-28T06:26:09.263Z,100485.94
2022-07-28T06:28:37.356Z,100492.66
2022-07-28T06:31:04.657Z,100493.63
2022-07-28T06:33:32.137Z,100491.34
2022-07-28T06:35:59.359Z,100487.66
2022-07-28T06:38:26.562Z,100488.94
2022-07-28T06:40:53.831Z,100490.34
2022-07-28T06:43:21.080Z,100487.56
2022-07-28T06:45:48.344Z,100499.16
2022-07-28T06:48:15.723Z,100498.03
2022-07-28T06:50:42.944Z,100496.72
2022-07-28T06:53:10.261Z,100495.50
2022-07-28T06:55:37.711Z,100500.88
2022-07-28T06:58:05.128Z,100492.22
2022-07-28T07:00:32.612Z,100490.03
2022-07-28T07:03:00.838Z,100491.38
2022-07-28T07:05:32.099Z,100491.38
2022-07-28T07:07:59.995Z,100489.69
2022-07-28T07:10:27.229Z,100495.50
2022-07-28T07:12:54.459Z,100493.88
2022-07-28T07:15:21.666Z,100493.69
2022-07-28T07:17:48.847Z,100504.88
2022-07-28T07:20:18.092Z,100507.16
2022-07-28T07:22:46.232Z,100494.19
2022-07-28T07:25:15.077Z,100497.31
2022-07-28T07:27:42.395Z,100494.88
2022-07-28T07:30:10.302Z,100501.69
2022-07-28T07:32:37.665Z,100487.94
2022-07-28T07:35:06.110Z,100489.19
2022-07-28T07:37:33.357Z,100491.19
2022-07-28T07:40:01.605Z,100490.81
2022-07-28T07:42:29.016Z,100491.34
2022-07-28T07:44:56.581Z,100488.31
2022-07-28T07:47:23.933Z,100481.94
2022-07-28T07:49:51.715Z,100488.88
2022-07-28T07:52:19.073Z,100486.16
2022-07-28T07:54:46.540Z,100481.38
2022-07-28T07:57:14.233Z,100488.59
2022-07-28T07:59:41.831Z,100479.38
2022-07-28T08:02:09.174Z,100480.56
2022-07-28T08:04:37.098Z,100494.19
2022-07-28T08:07:05.588Z,100490.66
2022-07-28T08:09:33.379Z,100498.22
2022-07-28T08:12:00.693Z,100493.56
2022-07-28T08:14:28.067Z,100497.72
2022-07-28T08:16:56.806Z,100497.84
2022-07-28T08:19:24.382Z,100479.84
2022-07-28T08:21:52.099Z,100490.41
2022-07-28T08:24:32.888Z,100483.03
2022-07-28T08:27:04.998Z,100488.25
2022-07-28T08:29:32.438Z,100495.53
2022-07-28T08:32:01.381Z,100484.25
2022-07-28T08:34:31.660Z,100483.59
2022-07-28T08:37:02.004Z,100490.22
2022-07-28T08:39:29.792Z,100481.13
2022-07-28T08:42:04.468Z,100488.84
2022-07-28T08:44:38.004Z,100489.69
2022-07-28T08:47:08.465Z,100485.91
2022-07-28T08:49:39.281Z,100498.78
2022-07-28T08:52:09.769Z,100503.06
2022-07-28T08:54:37.411Z,100506.34
2022-07-28T08:57:04.560Z,100500.53
2022-07-28T08:59:31.937Z,100511.28
2022-07-28T09:01:59.200Z,100510.19
2022-07-28T09:04:26.716Z,100509.19
2022-07-28T09:06:54.761Z,100509.13
2022-07-28T09:09:22.462Z,100513.13
2022-07-28T09:11:49.674Z,100520.53
2022-07-28T09:14:17.178Z,100522.53
2022-07-28T09:16:44.779Z,100519.47
2022-07-28T09:19:12.018Z,100521.78
2022-07-28T09:21:39.269Z,100512.72
2022-07-28T09:24:06.830Z,100519.22
2022-07-28T09:26:34.029Z,100523.78
2022-07-28T09:29:03.898Z,100518.66
2022-07-28T09:31:31.225Z,100516.53
2022-07-28T09:33:58.562Z,100514.91
2022-07-28T09:36:25.984Z,100518.41
2022-07-28T09:38:54.173Z,100514.09
2022-07-28T09:41:22.004Z,100516.97
2022-07-28T09:43:54.476Z,100516.19
2022-07-28T09:46:27.423Z,100509.81
2022-07-28T09:49:01.075Z,100509.50
2022-07-28T09:51:33.534Z,100499.06
2022-07-28T09:54:11.345Z,100503.16
2022-07-28T09:56:43.747Z,100507.81
2022-07-28T09:59:12.794Z,100497.66
2022-07-28T10:01:52.083Z,100495.38
2022-07-28T10:04:29.860Z,100497.84
2022-07-28T10:07:18.013Z,100482.41
2022-07-28T10:09:55.946Z,100498.72
2022-07-28T10:12:24.832Z,100481.09
2022-07-28T10:14:53.516Z,100485.19
2022-07-28T10:17:23.742Z,100487.06
2022-07-28T10:19:52.116Z,100492.84
2022-07-28T10:22:19.820Z,100489.91
2022-07-28T10:24:47.774Z,100490.25
2022-07-28T10:27:15.209Z,100489.25
2022-07-28T10:29:44.388Z,100483.22
2022-07-28T10:32:12.299Z,100489.41
2022-07-28T10:34:46.414Z,100488.19
2022-07-28T10:37:17.447Z,100482.19
2022-07-28T10:39:51.715Z,100477.00
2022-07-28T10:42:19.778Z,100480.97
2022-07-28T10:44:49.662Z,100477.22
2022-07-28T10:47:18.294Z,100486.31
2022-07-28T10:49:48.554Z,100497.94
2022-07-28T10:52:45.819Z,100490.72
2022-07-28T10:55:25.870Z,100486.13
2022-07-28T10:58:11.721Z,100487.56
2022-07-28T11:00:56.119Z,100481.03
2022-07-28T11:03:40.478Z,100489.00
2022-07-28T11:06:39.850Z,100491.97
2022-07-28T11:09:16.185Z,100488.38
2022-07-28T11:11:49.879Z,100477.84
2022-07-28T11:14:22.855Z,100472.91
2022-07-28T11:17:00.893Z,100473.81
2022-07-28T11:20:07.191Z,100469.59
2022-07-28T11:22:38.163Z,100463.91
2022-07-28T11:25:18.667Z,100465.75
2022-07-28T11:27:51.906Z,100461.09
2022-07-28T11:30:21.247Z,100472.25
2022-07-28T11:32:51.678Z,100469.66
2022-07-28T11:35:19.631Z,100465.69
2022-07-28T11:37:59.051Z,100466.03
2022-07-28T11:40:29.401Z,100465.97
2022-07-28T11:43:35.724Z,100455.41
2022-07-28T11:46:07.063Z,100462.75
2022-07-28T11:48:37.563Z,100460.25
2022-07-28T11:51:04.893Z,100450.94
2022-07-28T11:53:35.210Z,100460.34
2022-07-28T11:56:25.475Z,100461.59
2022-07-28T11:59:00.509Z,100455.63
2022-07-28T12:01:27.911Z,100455.44
2022-07-28T12:04:00.019Z,100443.66
2022-07-28T12:06:35.449Z,100443.13
2022-07-28T12:09:02.853Z,100430.19
2022-07-28T12:11:34.266Z,100438.03
2022-07-28T12:14:05.721Z,100442.09
2022-07-28T12:16:34.154Z,100422.53
2022-07-28T12:19:02.133Z,100417.63
2022-07-28T12:21:45.741Z,100417.75
2022-07-28T12:24:27.916Z,100419.66
2022-07-28T12:26:55.837Z,100422.22
2022-07-28T12:29:24.191Z,100418.22
2022-07-28T12:32:01.238Z,100416.22
2022-07-28T12:34:29.862Z,100417.16
2022-07-28T12:36:58.594Z,100422.31
2022-07-28T12:39:26.322Z,100414.34
2022-07-28T12:42:13.862Z,100400.03
2022-07-28T12:44:41.149Z,100398.81
2022-07-28T12:47:10.771Z,100401.50
2022-07-28T12:49:39.340Z,100399.72
2022-07-28T12:52:19.787Z,100397.84
2022-07-28T12:54:50.509Z,100393.44
2022-07-28T12:57:48.356Z,100400.91
2022-07-28T13:00:19.606Z,100392.06
2022-07-28T13:02:47.951Z,100409.75
2022-07-28T13:05:27.443Z,100410.41
2022-07-28T13:08:04.828Z,100404.78
2022-07-28T13:10:32.495Z,100410.38
2022-07-28T13:13:01.634Z,100405.09
2022-07-28T13:15:28.915Z,100397.31
2022-07-28T13:17:57.138Z,100397.88
2022-07-28T13:20:24.796Z,100396.16
2022-07-28T13:22:52.658Z,100395.41
2022-07-28T13:25:20.380Z,100387.72
2022-07-28T13:27:52.329Z,100393.69
2022-07-28T13:30:22.783Z,100397.63
2022-07-28T13:32:50.263Z,100394.88
2022-07-28T13:35:18.836Z,100394.09
2022-07-28T13:37:48.367Z,100390.63
2022-07-28T13:40:15.639Z,100394.41
2022-07-28T13:42:53.094Z,100392.13
2022-07-28T13:45:24.528Z,100402.94
2022-07-28T13:47:52.336Z,100399.88
2022-07-28T13:50:21.046Z,100395.19
2022-07-28T13:52:48.599Z,100392.91
2022-07-28T13:55:17.710Z,100386.00
2022-07-28T13:57:49.071Z,100391.31
2022-07-28T14:00:34.237Z,100394.38
2022-07-28T14:03:01.633Z,100382.69
2022-07-28T14:05:31.859Z,100386.28
2022-07-28T14:08:00.096Z,100379.19
2022-07-28T14:10:27.662Z,100385.16
2022-07-28T14:12:55.115Z,100392.56
2022-07-28T14:15:22.269Z,100388.25
2022-07-28T14:17:49.561Z,100377.63
2022-07-28T14:20:16.901Z,100378.56
2022-07-28T14:22:44.727Z,100374.88
2022-07-28T14:25:21.131Z,100372.59
2022-07-28T14:27:49.625Z,100365.56
2022-07-28T14:30:17.215Z,100369.19
2022-07-28T14:32:44.597Z,100369.72
2022-07-28T14:35:11.931Z,100365.44
2022-07-28T14:40:26.564Z,100358.41
2022-07-28T14:42:53.757Z,100363.91
2022-07-28T14:45:21.050Z,100364.78
2022-07-28T14:47:48.263Z,100362.50
2022-07-28T14:50:15.470Z,100361.09
2022-07-28T14:52:44.984Z,100362.50
2022-07-28T14:55:12.675Z,100365.00
2022-07-28T14:57:50.389Z,100359.50
2022-07-28T15:00:23.248Z,100366.84
2022-07-28T15:02:53.904Z,100368.75
2022-07-28T15:05:21.910Z,100368.06
2022-07-28T15:07:51.855Z,100360.00
2022-07-28T15:10:19.806Z,100366.34
2022-07-28T15:12:47.058Z,100368.81
2022-07-28T15:15:14.301Z,100369.50
2022-07-28T15:17:41.599Z,100370.50
2022-07-28T15:20:09.464Z,100362.53
2022-07-28T15:22:37.220Z,100365.03
2022-07-28T15:25:05.323Z,100375.97
2022-07-28T15:27:33.674Z,100368.03
2022-07-28T15:30:02.880Z,100363.53
2022-07-28T15:32:31.742Z,100367.16
2022-07-28T15:34:59.459Z,100361.97
2022-07-28T15:37:28.035Z,100355.78
2022-07-28T15:39:55.442Z,100352.41
2022-07-28T15:42:22.772Z,100359.47
2022-07-28T15:44:51.357Z,100354.09
2022-07-28T15:47:18.574Z,100356.75
2022-07-28T15:49:45.842Z,100362.44
2022-07-28T15:52:14.577Z,100365.34
2022-07-28T15:54:42.256Z,100364.16
2022-07-28T15:57:09.538Z,100356.09
2022-07-28T15:59:49.670Z,100353.25
2022-07-28T16:02:18.673Z,100345.13
2022-07-28T16:04:50.002Z,100341.16
2022-07-28T16:07:24.729Z,100332.66
2022-07-28T16:09:54.206Z,100329.91
2022-07-28T16:12:24.804Z,100322.81
2022-07-28T16:14:55.735Z,100322.47
2022-07-28T16:17:23.220Z,100335.19
2022-07-28T16:19:51.665Z,100327.19
2022-07-28T16:22:19.278Z,100325.13
2022-07-28T16:24:46.721Z,100319.97
2022-07-28T16:27:14.733Z,100318.75
2022-07-28T16:29:42.258Z,100319.88
2022-07-28T16:32:09.555Z,100320.75
2022-07-28T16:34:37.085Z,100318.06
2022-07-28T16:37:05.693Z,100318.38
2022-07-28T16:39:33.514Z,100318.38
2022-07-28T16:42:01.441Z,100314.94
2022-07-28T16:44:29.448Z,100314.22
2022-07-28T16:46:58.092Z,100321.44
2022-07-28T16:49:25.600Z,100311.56
2022-07-28T16:51:52.990Z,100311.22
2022-07-28T16:54:20.727Z,100322.03
2022-07-28T16:56:49.298Z,100329.59
2022-07-28T16:59:16.738Z,100330.66
2022-07-28T17:01:46.413Z,100329.91
2022-07-28T17:04:15.149Z,100328.22
2022-07-28T17:06:43.258Z,100324.78
2022-07-28T17:09:10.901Z,100320.06
2022-07-28T17:11:38.247Z,100324.91
2022-07-28T17:14:05.827Z,100326.00
2022-07-28T17:16:33.121Z,100329.94
2022-07-28T17:19:00.718Z,100321.88
2022-07-28T17:21:28.057Z,100314.66
2022-07-28T17:23:55.267Z,100315.44
2022-07-28T17:27:32.549Z,100314.00
2022-07-28T17:29:10.392Z,100320.91
2022-07-28T17:31:39.039Z,100324.59
2022-07-28T17:34:07.570Z,100316.25
2022-07-28T17:36:35.639Z,100322.78
2022-07-28T17:39:03.524Z,100314.75
2022-07-28T17:41:30.813Z,100314.75
2022-07-28T17:43:58.031Z,100319.53
2022-07-28T17:46:26.448Z,100316.28
2022-07-28T17:48:54.387Z,100328.81
2022-07-28T17:51:21.952Z,100326.59
2022-07-28T17:53:50.335Z,100327.09
2022-07-28T17:56:18.438Z,100334.66
2022-07-28T17:58:45.916Z,100337.75
2022-07-28T18:01:14.614Z,100337.69
2022-07-28T18:03:56.691Z,100340.97
2022-07-28T18:06:32.704Z,100345.31
2022-07-28T18:09:05.532Z,100349.25
2022-07-28T18:11:35.967Z,100349.63
2022-07-28T18:14:05.571Z,100350.44
2022-07-28T18:16:34.706Z,100342.06
2022-07-28T18:19:02.843Z,100335.72
2022-07-28T18:21:30.117Z,100344.63
2022-07-28T18:23:57.349Z,100350.97
2022-07-28T18:26:24.577Z,100350.66
2022-07-28T18:28:52.164Z,100348.59
2022-07-28T18:31:19.600Z,100355.69
2022-07-28T18:33:46.903Z,100362.03
2022-07-28T18:36:14.129Z,100354.31
2022-07-28T18:38:41.698Z,100360.50
2022-07-28T18:41:08.926Z,100352.28
2022-07-28T18:46:38.735Z,100353.16
2022-07-28T18:49:06.081Z,100357.25
2022-07-28T18:51:33.277Z,100361.53
2022-07-28T18:54:00.442Z,100357.75
2022-07-28T18:56:27.668Z,100360.84
2022-07-28T18:58:56.089Z,100359.28
2022-07-28T19:01:23.923Z,100368.56
2022-07-28T19:03:51.231Z,100376.97
2022-07-28T19:06:18.466Z,100377.97
2022-07-28T19:08:45.678Z,100377.50
2022-07-28T19:11:16.146Z,100376.09
2022-07-28T19:13:46.009Z,100376.94
2022-07-28T19:16:13.367Z,100377.13
2022-07-28T19:18:40.709Z,100375.78
2022-07-28T19:21:08.811Z,100383.81
2022-07-28T19:23:36.034Z,100377.84
2022-07-28T19:26:03.833Z,100380.22
2022-07-28T19:28:31.049Z,100386.56
2022-07-28T19:30:59.935Z,100401.47
2022-07-28T19:33:37.313Z,100406.78
2022-07-28T19:36:10.841Z,100421.19
2022-07-28T19:38:38.126Z,100429.22
2022-07-28T19:41:05.293Z,100444.16
2022-07-28T19:43:32.985Z,100454.44
2022-07-28T19:46:00.405Z,100461.63
2022-07-28T19:48:27.802Z,100466.63
2022-07-28T19:50:56.468Z,100472.81
2022-07-28T19:53:31.941Z,100483.94
2022-07-28T19:55:59.637Z,100492.69
2022-07-28T19:58:26.829Z,100500.41
2022-07-28T20:00:56.357Z,100503.97
2022-07-28T20:04:01.250Z,100503.09
2022-07-28T20:06:11.785Z,100498.13
2022-07-28T20:08:39.555Z,100491.47
2022-07-28T20:11:07.211Z,100492.50
2022-07-28T20:13:34.638Z,100486.59
2022-07-28T20:16:01.868Z,100487.94
2022-07-28T20:18:29.071Z,100473.53
2022-07-28T20:20:56.283Z,100472.22
2022-07-28T20:23:23.453Z,100474.97
2022-07-28T20:25:50.637Z,100480.03
2022-07-28T20:28:17.855Z,100480.53
2022-07-28T20:30:45.120Z,100480.09
2022-07-28T20:33:12.349Z,100484.06
2022-07-28T20:35:39.550Z,100485.94
2022-07-28T20:38:08.266Z,100481.75
2022-07-28T20:40:35.521Z,100487.03
2022-07-28T20:43:02.913Z,100485.78
2022-07-28T20:45:31.723Z,100485.09
2022-07-28T20:47:59.033Z,100485.50
2022-07-28T20:50:26.349Z,100483.94
2022-07-28T20:52:53.545Z,100490.31
2022-07-28T20:55:20.876Z,100478.56
2022-07-28T20:57:53.201Z,100485.66
2022-07-28T21:00:21.861Z,100476.00
2022-07-28T21:02:49.156Z,100472.38
2022-07-28T21:05:25.686Z,100475.81
2022-07-28T21:08:04.684Z,100477.34
2022-07-28T21:10:34.241Z,100474.47
2022-07-28T21:13:01.497Z,100470.19
2022-07-28T21:15:29.472Z,100481.53
2022-07-28T21:18:14.776Z,100493.03
2022-07-28T21:20:42.417Z,100486.69
2022-07-28T21:23:09.584Z,100491.97
2022-07-28T21:25:36.913Z,100499.00
2022-07-28T21:28:22.739Z,100509.84
2022-07-28T21:30:49.919Z,100509.84
2022-07-28T21:33:22.394Z,100506.75
2022-07-28T21:35:50.712Z,100514.63
2022-07-28T21:38:17.921Z,100522.38
2022-07-28T21:40:45.186Z,100523.53
2022-07-28T21:43:12.374Z,100519.69
2022-07-28T21:45:39.632Z,100527.06
2022-07-28T21:48:06.852Z,100543.06
2022-07-28T21:50:35.857Z,100543.84
2022-07-28T21:53:03.176Z,100548.69
2022-07-28T21:55:30.517Z,100562.91
2022-07-28T21:57:57.722Z,100566.63
2022-07-28T22:00:25.029Z,100586.75
2022-07-28T22:02:52.191Z,100595.22
2022-07-28T22:05:19.476Z,100618.19
2022-07-28T22:07:48.269Z,100633.25
2022-07-28T22:10:15.631Z,100692.44
2022-07-28T22:12:43.064Z,100704.88
2022-07-28T22:15:10.581Z,100728.53
2022-07-28T22:17:38.049Z,100705.81
2022-07-28T22:20:05.581Z,100699.44
2022-07-28T22:22:32.989Z,100710.75
2022-07-28T22:25:00.159Z,100698.28
2022-07-28T22:27:27.515Z,100701.34
2022-07-28T22:29:54.732Z,100683.72
2022-07-28T22:32:28.699Z,100673.22
2022-07-28T22:34:59.514Z,100693.56
2022-07-28T22:37:26.725Z,100697.63
2022-07-28T22:39:54.011Z,100681.28
2022-07-28T22:42:21.238Z,100663.38
2022-07-28T22:44:48.681Z,100659.84
2022-07-28T22:47:15.906Z,100657.66
2022-07-28T22:49:43.119Z,100651.94
2022-07-28T22:52:10.300Z,100639.03
2022-07-28T22:57:22.669Z,100635.13
2022-07-28T22:59:51.251Z,100643.78
2022-07-28T23:02:18.705Z,100629.44
2022-07-28T23:04:51.428Z,100621.75
2022-07-28T23:07:19.146Z,100600.38
2022-07-28T23:09:46.767Z,100602.59
2022-07-28T23:12:14.089Z,100609.06
2022-07-28T23:14:41.314Z,100605.84
2022-07-28T23:17:08.570Z,100593.63
2022-07-28T23:19:35.797Z,100588.75
2022-07-28T23:22:03.163Z,100587.56
2022-07-28T23:24:30.525Z,100578.63
2022-07-28T23:26:57.754Z,100575.59
2022-07-28T23:29:25.001Z,100578.88
2022-07-28T23:31:54.032Z,100572.25
2022-07-28T23:34:21.414Z,100563.38
2022-07-28T23:36:48.738Z,100560.38
2022-07-28T23:39:16.004Z,100554.28
2022-07-28T23:41:43.314Z,100547.31
2022-07-28T23:44:10.522Z,100554.78
2022-07-28T23:46:37.896Z,100548.03
2022-07-28T23:49:05.679Z,100548.25
2022-07-28T23:51:46.644Z,100548.31
2022-07-28T23:54:15.026Z,100542.53
2022-07-28T23:56:42.896Z,100540.59
2022-07-28T23:59:13.673Z,100547.19
